sensor_id;sensor_type;location;lat;lon;timestamp;P1;durP1;ratioP1;P2;durP2;ratioP2
55206;SDS011;41079;52.856;6.534;2022-07-18T00:00:29;800.03;;;334.27;;
55206;SDS011;41079;52.856;6.534;2022-07-18T00:02:55;807.38;;;342.05;;
55206;SDS011;41079;52.856;6.534;2022-07-18T00:05:21;812.05;;;347.80;;
55206;SDS011;41079;52.856;6.534;2022-07-18T00:07:46;802.88;;;337.45;;
55206;SDS011;41079;52.856;6.534;2022-07-18T00:10:12;805.78;;;341.08;;
55206;SDS011;41079;52.856;6.534;2022-07-18T00:12:38;804.85;;;341.88;;
55206;SDS011;41079;52.856;6.534;2022-07-18T00:15:04;801.45;;;337.33;;
55206;SDS011;41079;52.856;6.534;2022-07-18T00:17:30;802.67;;;337.77;;
55206;SDS011;41079;52.856;6.534;2022-07-18T00:19:56;803.20;;;338.63;;
55206;SDS011;41079;52.856;6.534;2022-07-18T00:22:21;800.90;;;335.77;;
55206;SDS011;41079;52.856;6.534;2022-07-18T00:24:47;807.40;;;343.48;;
55206;SDS011;41079;52.856;6.534;2022-07-18T00:27:12;802.90;;;338.42;;
55206;SDS011;41079;52.856;6.534;2022-07-18T00:29:38;809.40;;;344.35;;
55206;SDS011;41079;52.856;6.534;2022-07-18T00:32:05;803.20;;;339.10;;
55206;SDS011;41079;52.856;6.534;2022-07-18T00:34:33;805.72;;;341.42;;
55206;SDS011;41079;52.856;6.534;2022-07-18T00:36:59;802.38;;;337.90;;
55206;SDS011;41079;52.856;6.534;2022-07-18T00:39:25;801.53;;;335.88;;
55206;SDS011;41079;52.856;6.534;2022-07-18T00:41:51;805.25;;;340.33;;
55206;SDS011;41079;52.856;6.534;2022-07-18T00:44:21;803.63;;;338.80;;
55206;SDS011;41079;52.856;6.534;2022-07-18T00:46:49;795.10;;;331.38;;
55206;SDS011;41079;52.856;6.534;2022-07-18T00:49:16;798.95;;;334.27;;
55206;SDS011;41079;52.856;6.534;2022-07-18T00:51:42;806.40;;;342.25;;
55206;SDS011;41079;52.856;6.534;2022-07-18T00:54:08;800.55;;;336.45;;
55206;SDS011;41079;52.856;6.534;2022-07-18T00:56:34;802.60;;;337.67;;
55206;SDS011;41079;52.856;6.534;2022-07-18T00:59:00;805.28;;;341.83;;
55206;SDS011;41079;52.856;6.534;2022-07-18T01:01:25;807.80;;;344.45;;
55206;SDS011;41079;52.856;6.534;2022-07-18T01:04:15;803.10;;;338.15;;
55206;SDS011;41079;52.856;6.534;2022-07-18T01:06:42;808.60;;;344.48;;
55206;SDS011;41079;52.856;6.534;2022-07-18T01:09:08;804.28;;;340.23;;
55206;SDS011;41079;52.856;6.534;2022-07-18T01:11:34;810.10;;;345.05;;
55206;SDS011;41079;52.856;6.534;2022-07-18T01:14:01;796.35;;;331.88;;
55206;SDS011;41079;52.856;6.534;2022-07-18T01:16:28;812.50;;;346.95;;
55206;SDS011;41079;52.856;6.534;2022-07-18T01:18:54;803.70;;;340.17;;
55206;SDS011;41079;52.856;6.534;2022-07-18T01:21:20;805.10;;;340.38;;
55206;SDS011;41079;52.856;6.534;2022-07-18T01:23:45;811.33;;;346.15;;
55206;SDS011;41079;52.856;6.534;2022-07-18T01:26:12;795.38;;;330.50;;
55206;SDS011;41079;52.856;6.534;2022-07-18T01:28:39;804.28;;;339.40;;
55206;SDS011;41079;52.856;6.534;2022-07-18T01:31:05;812.33;;;347.95;;
55206;SDS011;41079;52.856;6.534;2022-07-18T01:33:32;807.80;;;341.63;;
55206;SDS011;41079;52.856;6.534;2022-07-18T01:36:01;804.22;;;338.95;;
55206;SDS011;41079;52.856;6.534;2022-07-18T01:38:28;802.58;;;337.15;;
55206;SDS011;41079;52.856;6.534;2022-07-18T01:40:57;810.33;;;344.67;;
55206;SDS011;41079;52.856;6.534;2022-07-18T01:43:24;804.45;;;339.77;;
55206;SDS011;41079;52.856;6.534;2022-07-18T01:45:50;801.78;;;336.98;;
55206;SDS011;41079;52.856;6.534;2022-07-18T01:48:16;809.28;;;343.00;;
55206;SDS011;41079;52.856;6.534;2022-07-18T01:50:42;803.70;;;338.15;;
55206;SDS011;41079;52.856;6.534;2022-07-18T01:53:07;802.00;;;336.10;;
55206;SDS011;41079;52.856;6.534;2022-07-18T01:55:33;811.90;;;346.77;;
55206;SDS011;41079;52.856;6.534;2022-07-18T01:57:59;808.53;;;342.83;;
55206;SDS011;41079;52.856;6.534;2022-07-18T02:00:24;805.20;;;339.58;;
55206;SDS011;41079;52.856;6.534;2022-07-18T02:02:50;803.60;;;337.00;;
55206;SDS011;41079;52.856;6.534;2022-07-18T02:05:16;804.60;;;338.83;;
55206;SDS011;41079;52.856;6.534;2022-07-18T02:07:42;810.97;;;343.05;;
55206;SDS011;41079;52.856;6.534;2022-07-18T02:12:38;798.80;;;333.90;;
55206;SDS011;41079;52.856;6.534;2022-07-18T02:15:05;808.00;;;342.85;;
55206;SDS011;41079;52.856;6.534;2022-07-18T02:17:32;799.42;;;333.35;;
55206;SDS011;41079;52.856;6.534;2022-07-18T02:19:58;805.55;;;339.40;;
55206;SDS011;41079;52.856;6.534;2022-07-18T02:22:24;805.40;;;338.48;;
55206;SDS011;41079;52.856;6.534;2022-07-18T02:24:50;804.20;;;336.98;;
55206;SDS011;41079;52.856;6.534;2022-07-18T02:27:16;804.90;;;337.40;;
55206;SDS011;41079;52.856;6.534;2022-07-18T02:29:42;810.83;;;340.75;;
55206;SDS011;41079;52.856;6.534;2022-07-18T02:32:08;806.08;;;338.67;;
55206;SDS011;41079;52.856;6.534;2022-07-18T02:34:34;799.83;;;331.90;;
55206;SDS011;41079;52.856;6.534;2022-07-18T02:36:59;794.13;;;328.70;;
55206;SDS011;41079;52.856;6.534;2022-07-18T02:39:25;804.92;;;337.58;;
55206;SDS011;41079;52.856;6.534;2022-07-18T02:41:50;802.30;;;334.08;;
55206;SDS011;41079;52.856;6.534;2022-07-18T02:44:16;801.42;;;334.45;;
55206;SDS011;41079;52.856;6.534;2022-07-18T02:46:42;800.90;;;333.35;;
55206;SDS011;41079;52.856;6.534;2022-07-18T02:49:07;801.75;;;335.20;;
55206;SDS011;41079;52.856;6.534;2022-07-18T02:51:33;805.00;;;337.48;;
55206;SDS011;41079;52.856;6.534;2022-07-18T02:53:59;798.95;;;331.98;;
55206;SDS011;41079;52.856;6.534;2022-07-18T02:56:25;801.65;;;334.45;;
55206;SDS011;41079;52.856;6.534;2022-07-18T02:58:50;806.40;;;337.85;;
55206;SDS011;41079;52.856;6.534;2022-07-18T03:01:16;812.40;;;344.00;;
55206;SDS011;41079;52.856;6.534;2022-07-18T03:03:42;807.90;;;338.77;;
55206;SDS011;41079;52.856;6.534;2022-07-18T03:06:07;810.25;;;340.15;;
55206;SDS011;41079;52.856;6.534;2022-07-18T03:08:33;795.15;;;329.30;;
55206;SDS011;41079;52.856;6.534;2022-07-18T03:10:58;808.78;;;339.48;;
55206;SDS011;41079;52.856;6.534;2022-07-18T03:13:24;802.88;;;335.77;;
55206;SDS011;41079;52.856;6.534;2022-07-18T03:15:49;797.53;;;330.05;;
55206;SDS011;41079;52.856;6.534;2022-07-18T03:18:15;796.83;;;330.58;;
55206;SDS011;41079;52.856;6.534;2022-07-18T03:20:42;806.63;;;336.23;;
55206;SDS011;41079;52.856;6.534;2022-07-18T03:23:07;794.85;;;329.40;;
55206;SDS011;41079;52.856;6.534;2022-07-18T03:25:34;799.67;;;332.85;;
55206;SDS011;41079;52.856;6.534;2022-07-18T03:28:00;798.45;;;331.80;;
55206;SDS011;41079;52.856;6.534;2022-07-18T03:30:25;805.17;;;338.88;;
55206;SDS011;41079;52.856;6.534;2022-07-18T03:32:51;806.10;;;338.10;;
55206;SDS011;41079;52.856;6.534;2022-07-18T03:35:16;802.50;;;334.50;;
55206;SDS011;41079;52.856;6.534;2022-07-18T03:37:42;796.70;;;331.58;;
55206;SDS011;41079;52.856;6.534;2022-07-18T03:40:08;804.80;;;336.33;;
55206;SDS011;41079;52.856;6.534;2022-07-18T03:42:38;810.22;;;342.95;;
55206;SDS011;41079;52.856;6.534;2022-07-18T03:45:05;806.17;;;340.55;;
55206;SDS011;41079;52.856;6.534;2022-07-18T03:47:32;805.28;;;338.02;;
55206;SDS011;41079;52.856;6.534;2022-07-18T03:49:58;796.92;;;331.67;;
55206;SDS011;41079;52.856;6.534;2022-07-18T03:52:23;808.08;;;341.08;;
55206;SDS011;41079;52.856;6.534;2022-07-18T03:54:49;808.97;;;341.90;;
55206;SDS011;41079;52.856;6.534;2022-07-18T03:57:14;801.97;;;335.65;;
55206;SDS011;41079;52.856;6.534;2022-07-18T03:59:41;809.55;;;343.13;;
55206;SDS011;41079;52.856;6.534;2022-07-18T04:02:07;798.75;;;334.27;;
55206;SDS011;41079;52.856;6.534;2022-07-18T04:04:33;799.75;;;334.95;;
55206;SDS011;41079;52.856;6.534;2022-07-18T04:06:58;799.65;;;334.83;;
55206;SDS011;41079;52.856;6.534;2022-07-18T04:09:25;804.13;;;338.52;;
55206;SDS011;41079;52.856;6.534;2022-07-18T04:18:37;805.00;;;337.77;;
55206;SDS011;41079;52.856;6.534;2022-07-18T04:28:32;797.73;;;332.10;;
55206;SDS011;41079;52.856;6.534;2022-07-18T04:37:46;809.33;;;342.23;;
55206;SDS011;41079;52.856;6.534;2022-07-18T04:50:33;803.47;;;340.95;;
55206;SDS011;41079;52.856;6.534;2022-07-18T04:52:59;802.45;;;339.15;;
55206;SDS011;41079;52.856;6.534;2022-07-18T04:55:27;798.78;;;336.73;;
55206;SDS011;41079;52.856;6.534;2022-07-18T04:58:01;803.25;;;340.35;;
55206;SDS011;41079;52.856;6.534;2022-07-18T05:07:48;803.35;;;340.45;;
55206;SDS011;41079;52.856;6.534;2022-07-18T05:17:37;794.83;;;331.70;;
55206;SDS011;41079;52.856;6.534;2022-07-18T05:27:26;807.78;;;344.08;;
55206;SDS011;41079;52.856;6.534;2022-07-18T05:32:50;799.03;;;334.17;;
55206;SDS011;41079;52.856;6.534;2022-07-18T05:41:45;798.13;;;333.20;;
55206;SDS011;41079;52.856;6.534;2022-07-18T05:44:15;795.10;;;328.38;;
55206;SDS011;41079;52.856;6.534;2022-07-18T05:49:56;802.10;;;330.85;;
55206;SDS011;41079;52.856;6.534;2022-07-18T05:52:26;790.58;;;318.00;;
55206;SDS011;41079;52.856;6.534;2022-07-18T05:55:02;802.17;;;328.80;;
55206;SDS011;41079;52.856;6.534;2022-07-18T06:00:40;809.33;;;334.60;;
55206;SDS011;41079;52.856;6.534;2022-07-18T06:06:53;805.55;;;326.45;;
55206;SDS011;41079;52.856;6.534;2022-07-18T06:09:32;807.50;;;326.05;;
55206;SDS011;41079;52.856;6.534;2022-07-18T06:11:59;808.33;;;327.45;;
55206;SDS011;41079;52.856;6.534;2022-07-18T06:14:28;804.35;;;319.80;;
55206;SDS011;41079;52.856;6.534;2022-07-18T06:16:55;805.03;;;319.17;;
55206;SDS011;41079;52.856;6.534;2022-07-18T06:19:21;807.67;;;320.65;;
55206;SDS011;41079;52.856;6.534;2022-07-18T06:39:32;807.70;;;304.70;;
55206;SDS011;41079;52.856;6.534;2022-07-18T06:42:01;799.80;;;293.80;;
55206;SDS011;41079;52.856;6.534;2022-07-18T06:44:27;800.45;;;293.60;;
55206;SDS011;41079;52.856;6.534;2022-07-18T06:46:54;803.60;;;295.30;;
55206;SDS011;41079;52.856;6.534;2022-07-18T06:49:31;809.60;;;299.30;;
55206;SDS011;41079;52.856;6.534;2022-07-18T06:52:00;800.33;;;288.98;;
55206;SDS011;41079;52.856;6.534;2022-07-18T06:54:25;800.88;;;287.63;;
55206;SDS011;41079;52.856;6.534;2022-07-18T06:57:00;808.90;;;291.85;;
55206;SDS011;41079;52.856;6.534;2022-07-18T07:02:02;807.97;;;287.10;;
55206;SDS011;41079;52.856;6.534;2022-07-18T07:04:28;808.50;;;284.95;;
55206;SDS011;41079;52.856;6.534;2022-07-18T07:07:00;811.08;;;286.33;;
55206;SDS011;41079;52.856;6.534;2022-07-18T07:09:31;810.00;;;283.10;;
55206;SDS011;41079;52.856;6.534;2022-07-18T07:12:00;804.78;;;278.33;;
55206;SDS011;41079;52.856;6.534;2022-07-18T07:14:25;810.70;;;280.60;;
55206;SDS011;41079;52.856;6.534;2022-07-18T07:16:53;812.45;;;280.58;;
55206;SDS011;41079;52.856;6.534;2022-07-18T07:19:27;809.45;;;278.02;;
55206;SDS011;41079;52.856;6.534;2022-07-18T07:21:53;811.10;;;278.77;;
55206;SDS011;41079;52.856;6.534;2022-07-18T07:24:19;824.72;;;289.75;;
55206;SDS011;41079;52.856;6.534;2022-07-18T07:29:29;825.88;;;288.58;;
55206;SDS011;41079;52.856;6.534;2022-07-18T07:32:12;830.30;;;292.27;;
55206;SDS011;41079;52.856;6.534;2022-07-18T07:37:27;829.97;;;290.42;;
55206;SDS011;41079;52.856;6.534;2022-07-18T07:39:52;834.80;;;294.05;;
55206;SDS011;41079;52.856;6.534;2022-07-18T07:42:18;833.22;;;291.80;;
55206;SDS011;41079;52.856;6.534;2022-07-18T07:47:43;828.92;;;284.70;;
55206;SDS011;41079;52.856;6.534;2022-07-18T08:09:23;837.38;;;289.27;;
55206;SDS011;41079;52.856;6.534;2022-07-18T08:12:04;838.83;;;290.95;;
55206;SDS011;41079;52.856;6.534;2022-07-18T08:14:45;837.70;;;287.92;;
55206;SDS011;41079;52.856;6.534;2022-07-18T08:20:51;838.08;;;286.40;;
55206;SDS011;41079;52.856;6.534;2022-07-18T09:19:30;867.15;;;299.55;;
55206;SDS011;41079;52.856;6.534;2022-07-18T09:25:37;855.35;;;289.45;;
55206;SDS011;41079;52.856;6.534;2022-07-18T09:31:50;863.25;;;295.45;;
55206;SDS011;41079;52.856;6.534;2022-07-18T09:34:35;865.00;;;294.90;;
55206;SDS011;41079;52.856;6.534;2022-07-18T09:46:27;871.03;;;297.77;;
55206;SDS011;41079;52.856;6.534;2022-07-18T09:49:08;865.92;;;294.17;;
55206;SDS011;41079;52.856;6.534;2022-07-18T10:02:58;876.65;;;300.50;;
55206;SDS011;41079;52.856;6.534;2022-07-18T10:11:59;874.30;;;300.65;;
55206;SDS011;41079;52.856;6.534;2022-07-18T10:14:25;870.80;;;296.92;;
55206;SDS011;41079;52.856;6.534;2022-07-18T10:16:52;868.65;;;295.75;;
55206;SDS011;41079;52.856;6.534;2022-07-18T10:19:19;865.33;;;292.77;;
55206;SDS011;41079;52.856;6.534;2022-07-18T10:21:56;870.53;;;297.35;;
55206;SDS011;41079;52.856;6.534;2022-07-18T10:24:25;871.95;;;297.92;;
55206;SDS011;41079;52.856;6.534;2022-07-18T10:27:12;865.08;;;292.40;;
55206;SDS011;41079;52.856;6.534;2022-07-18T10:29:46;868.20;;;294.27;;
55206;SDS011;41079;52.856;6.534;2022-07-18T10:32:34;867.28;;;294.35;;
55206;SDS011;41079;52.856;6.534;2022-07-18T10:35:00;867.83;;;294.17;;
55206;SDS011;41079;52.856;6.534;2022-07-18T10:37:25;874.90;;;299.90;;
55206;SDS011;41079;52.856;6.534;2022-07-18T10:39:55;867.80;;;293.75;;
55206;SDS011;41079;52.856;6.534;2022-07-18T10:42:41;879.22;;;302.10;;
55206;SDS011;41079;52.856;6.534;2022-07-18T10:45:19;867.95;;;292.20;;
55206;SDS011;41079;52.856;6.534;2022-07-18T10:51:17;880.63;;;301.92;;
55206;SDS011;41079;52.856;6.534;2022-07-18T10:58:52;875.03;;;297.08;;
55206;SDS011;41079;52.856;6.534;2022-07-18T11:01:20;876.03;;;297.95;;
55206;SDS011;41079;52.856;6.534;2022-07-18T11:03:47;880.75;;;300.67;;
55206;SDS011;41079;52.856;6.534;2022-07-18T11:06:14;881.25;;;300.95;;
55206;SDS011;41079;52.856;6.534;2022-07-18T11:08:40;874.70;;;295.77;;
55206;SDS011;41079;52.856;6.534;2022-07-18T11:11:06;882.30;;;301.98;;
55206;SDS011;41079;52.856;6.534;2022-07-18T11:13:33;872.53;;;294.35;;
55206;SDS011;41079;52.856;6.534;2022-07-18T11:19:15;880.53;;;301.30;;
55206;SDS011;41079;52.856;6.534;2022-07-18T11:21:33;877.83;;;297.92;;
55206;SDS011;41079;52.856;6.534;2022-07-18T11:24:00;877.10;;;298.13;;
55206;SDS011;41079;52.856;6.534;2022-07-18T11:26:32;882.03;;;301.02;;
55206;SDS011;41079;52.856;6.534;2022-07-18T11:31:31;878.08;;;297.90;;
55206;SDS011;41079;52.856;6.534;2022-07-18T11:34:07;881.67;;;300.55;;
55206;SDS011;41079;52.856;6.534;2022-07-18T11:36:33;878.40;;;297.65;;
55206;SDS011;41079;52.856;6.534;2022-07-18T11:39:00;878.83;;;298.63;;
55206;SDS011;41079;52.856;6.534;2022-07-18T11:41:28;874.20;;;295.47;;
55206;SDS011;41079;52.856;6.534;2022-07-18T11:43:55;880.15;;;299.38;;
55206;SDS011;41079;52.856;6.534;2022-07-18T11:46:22;876.00;;;295.52;;
55206;SDS011;41079;52.856;6.534;2022-07-18T11:49:02;879.53;;;297.52;;
55206;SDS011;41079;52.856;6.534;2022-07-18T11:51:42;883.95;;;300.60;;
55206;SDS011;41079;52.856;6.534;2022-07-18T11:54:09;884.65;;;301.60;;
55206;SDS011;41079;52.856;6.534;2022-07-18T11:56:46;876.70;;;295.23;;
55206;SDS011;41079;52.856;6.534;2022-07-18T11:59:13;882.38;;;300.13;;
55206;SDS011;41079;52.856;6.534;2022-07-18T12:01:41;884.50;;;303.08;;
55206;SDS011;41079;52.856;6.534;2022-07-18T12:04:14;877.63;;;297.97;;
55206;SDS011;41079;52.856;6.534;2022-07-18T12:06:43;882.70;;;301.30;;
55206;SDS011;41079;52.856;6.534;2022-07-18T12:09:09;880.50;;;300.80;;
55206;SDS011;41079;52.856;6.534;2022-07-18T12:11:38;880.25;;;300.92;;
55206;SDS011;41079;52.856;6.534;2022-07-18T12:16:39;875.38;;;296.88;;
55206;SDS011;41079;52.856;6.534;2022-07-18T12:19:17;875.13;;;296.17;;
55206;SDS011;41079;52.856;6.534;2022-07-18T12:21:50;867.20;;;290.92;;
55206;SDS011;41079;52.856;6.534;2022-07-18T12:32:44;873.05;;;294.50;;
55206;SDS011;41079;52.856;6.534;2022-07-18T12:35:13;872.17;;;293.48;;
55206;SDS011;41079;52.856;6.534;2022-07-18T12:37:40;879.70;;;299.10;;
55206;SDS011;41079;52.856;6.534;2022-07-18T12:40:10;874.53;;;295.02;;
55206;SDS011;41079;52.856;6.534;2022-07-18T12:42:38;877.83;;;297.80;;
55206;SDS011;41079;52.856;6.534;2022-07-18T12:45:07;877.70;;;298.57;;
55206;SDS011;41079;52.856;6.534;2022-07-18T12:47:36;883.90;;;303.02;;
55206;SDS011;41079;52.856;6.534;2022-07-18T12:50:03;871.83;;;293.48;;
55206;SDS011;41079;52.856;6.534;2022-07-18T12:52:30;876.20;;;296.15;;
55206;SDS011;41079;52.856;6.534;2022-07-18T12:54:55;877.15;;;296.88;;
55206;SDS011;41079;52.856;6.534;2022-07-18T12:57:21;879.22;;;299.05;;
55206;SDS011;41079;52.856;6.534;2022-07-18T12:59:47;878.13;;;296.95;;
55206;SDS011;41079;52.856;6.534;2022-07-18T13:02:13;879.22;;;297.83;;
55206;SDS011;41079;52.856;6.534;2022-07-18T13:04:39;875.53;;;295.17;;
55206;SDS011;41079;52.856;6.534;2022-07-18T13:07:05;880.65;;;298.55;;
55206;SDS011;41079;52.856;6.534;2022-07-18T13:09:31;881.40;;;298.58;;
55206;SDS011;41079;52.856;6.534;2022-07-18T13:11:58;886.83;;;301.70;;
55206;SDS011;41079;52.856;6.534;2022-07-18T13:14:24;877.60;;;294.50;;
55206;SDS011;41079;52.856;6.534;2022-07-18T13:16:49;887.88;;;301.33;;
55206;SDS011;41079;52.856;6.534;2022-07-18T13:19:17;882.03;;;296.23;;
55206;SDS011;41079;52.856;6.534;2022-07-18T13:21:43;888.13;;;301.65;;
55206;SDS011;41079;52.856;6.534;2022-07-18T13:24:10;893.22;;;305.02;;
55206;SDS011;41079;52.856;6.534;2022-07-18T13:26:36;894.95;;;306.23;;
55206;SDS011;41079;52.856;6.534;2022-07-18T13:29:03;884.20;;;297.40;;
55206;SDS011;41079;52.856;6.534;2022-07-18T13:31:29;878.30;;;293.77;;
55206;SDS011;41079;52.856;6.534;2022-07-18T13:33:55;884.58;;;299.27;;
55206;SDS011;41079;52.856;6.534;2022-07-18T13:36:21;884.00;;;298.42;;
55206;SDS011;41079;52.856;6.534;2022-07-18T13:38:47;884.13;;;299.67;;
55206;SDS011;41079;52.856;6.534;2022-07-18T13:41:12;881.30;;;298.42;;
55206;SDS011;41079;52.856;6.534;2022-07-18T13:43:38;882.70;;;299.33;;
55206;SDS011;41079;52.856;6.534;2022-07-18T13:46:09;883.05;;;300.30;;
55206;SDS011;41079;52.856;6.534;2022-07-18T13:48:36;879.40;;;297.33;;
55206;SDS011;41079;52.856;6.534;2022-07-18T13:51:03;884.22;;;302.20;;
55206;SDS011;41079;52.856;6.534;2022-07-18T13:53:29;885.70;;;303.00;;
55206;SDS011;41079;52.856;6.534;2022-07-18T13:55:55;881.58;;;299.88;;
55206;SDS011;41079;52.856;6.534;2022-07-18T13:58:20;883.70;;;300.60;;
55206;SDS011;41079;52.856;6.534;2022-07-18T14:00:46;885.42;;;302.10;;
55206;SDS011;41079;52.856;6.534;2022-07-18T14:03:12;885.75;;;302.75;;
55206;SDS011;41079;52.856;6.534;2022-07-18T14:05:39;881.40;;;300.00;;
55206;SDS011;41079;52.856;6.534;2022-07-18T14:08:05;884.00;;;301.20;;
55206;SDS011;41079;52.856;6.534;2022-07-18T14:10:31;885.85;;;301.52;;
55206;SDS011;41079;52.856;6.534;2022-07-18T14:12:57;878.40;;;295.92;;
55206;SDS011;41079;52.856;6.534;2022-07-18T14:15:23;877.10;;;295.38;;
55206;SDS011;41079;52.856;6.534;2022-07-18T14:17:49;875.20;;;294.02;;
55206;SDS011;41079;52.856;6.534;2022-07-18T14:20:15;884.80;;;301.38;;
55206;SDS011;41079;52.856;6.534;2022-07-18T14:22:41;886.95;;;303.30;;
55206;SDS011;41079;52.856;6.534;2022-07-18T14:25:08;884.10;;;300.73;;
55206;SDS011;41079;52.856;6.534;2022-07-18T14:27:35;882.85;;;300.60;;
55206;SDS011;41079;52.856;6.534;2022-07-18T14:30:02;885.10;;;302.02;;
55206;SDS011;41079;52.856;6.534;2022-07-18T14:32:30;884.25;;;301.77;;
55206;SDS011;41079;52.856;6.534;2022-07-18T14:34:55;886.28;;;302.27;;
55206;SDS011;41079;52.856;6.534;2022-07-18T14:37:21;873.75;;;293.20;;
55206;SDS011;41079;52.856;6.534;2022-07-18T14:39:46;876.80;;;295.35;;
55206;SDS011;41079;52.856;6.534;2022-07-18T14:42:12;885.83;;;303.02;;
55206;SDS011;41079;52.856;6.534;2022-07-18T14:44:38;879.28;;;297.13;;
55206;SDS011;41079;52.856;6.534;2022-07-18T14:47:04;883.35;;;301.00;;
55206;SDS011;41079;52.856;6.534;2022-07-18T14:49:30;884.90;;;301.33;;
55206;SDS011;41079;52.856;6.534;2022-07-18T14:51:55;884.13;;;299.85;;
55206;SDS011;41079;52.856;6.534;2022-07-18T14:54:22;882.55;;;297.88;;
55206;SDS011;41079;52.856;6.534;2022-07-18T14:56:48;893.50;;;305.90;;
55206;SDS011;41079;52.856;6.534;2022-07-18T14:59:13;890.97;;;303.02;;
55206;SDS011;41079;52.856;6.534;2022-07-18T15:01:39;892.08;;;303.58;;
55206;SDS011;41079;52.856;6.534;2022-07-18T15:04:05;892.03;;;304.23;;
55206;SDS011;41079;52.856;6.534;2022-07-18T15:06:30;891.47;;;302.83;;
55206;SDS011;41079;52.856;6.534;2022-07-18T15:08:56;888.88;;;300.00;;
55206;SDS011;41079;52.856;6.534;2022-07-18T15:11:21;884.42;;;296.42;;
55206;SDS011;41079;52.856;6.534;2022-07-18T15:13:49;886.83;;;297.48;;
55206;SDS011;41079;52.856;6.534;2022-07-18T15:16:15;883.67;;;295.48;;
55206;SDS011;41079;52.856;6.534;2022-07-18T15:18:41;880.70;;;294.48;;
55206;SDS011;41079;52.856;6.534;2022-07-18T15:21:07;882.05;;;295.88;;
55206;SDS011;41079;52.856;6.534;2022-07-18T15:23:35;887.70;;;300.48;;
55206;SDS011;41079;52.856;6.534;2022-07-18T15:26:00;887.88;;;301.17;;
55206;SDS011;41079;52.856;6.534;2022-07-18T15:28:26;879.47;;;293.85;;
55206;SDS011;41079;52.856;6.534;2022-07-18T15:30:52;879.50;;;294.38;;
55206;SDS011;41079;52.856;6.534;2022-07-18T15:33:17;884.67;;;298.50;;
55206;SDS011;41079;52.856;6.534;2022-07-18T15:35:43;890.72;;;304.00;;
55206;SDS011;41079;52.856;6.534;2022-07-18T15:38:09;888.67;;;301.85;;
55206;SDS011;41079;52.856;6.534;2022-07-18T15:40:35;889.83;;;302.00;;
55206;SDS011;41079;52.856;6.534;2022-07-18T15:43:01;885.25;;;299.08;;
55206;SDS011;41079;52.856;6.534;2022-07-18T15:45:27;887.58;;;299.80;;
55206;SDS011;41079;52.856;6.534;2022-07-18T15:47:54;885.20;;;298.17;;
55206;SDS011;41079;52.856;6.534;2022-07-18T15:50:19;882.85;;;296.90;;
55206;SDS011;41079;52.856;6.534;2022-07-18T15:52:45;884.55;;;298.42;;
55206;SDS011;41079;52.856;6.534;2022-07-18T15:55:11;886.80;;;300.52;;
55206;SDS011;41079;52.856;6.534;2022-07-18T15:57:39;888.60;;;301.55;;
55206;SDS011;41079;52.856;6.534;2022-07-18T16:00:05;887.03;;;301.13;;
55206;SDS011;41079;52.856;6.534;2022-07-18T16:02:31;886.28;;;300.60;;
55206;SDS011;41079;52.856;6.534;2022-07-18T16:04:58;885.85;;;300.38;;
55206;SDS011;41079;52.856;6.534;2022-07-18T16:07:24;885.35;;;300.02;;
55206;SDS011;41079;52.856;6.534;2022-07-18T16:09:50;877.28;;;294.42;;
55206;SDS011;41079;52.856;6.534;2022-07-18T16:40:55;886.63;;;300.30;;
55206;SDS011;41079;52.856;6.534;2022-07-18T16:47:01;881.42;;;296.90;;
55206;SDS011;41079;52.856;6.534;2022-07-18T16:53:08;886.95;;;300.63;;
55206;SDS011;41079;52.856;6.534;2022-07-18T17:03:07;889.90;;;304.13;;
55206;SDS011;41079;52.856;6.534;2022-07-18T17:21:08;884.33;;;300.55;;
55206;SDS011;41079;52.856;6.534;2022-07-18T17:31:00;879.22;;;295.45;;
55206;SDS011;41079;52.856;6.534;2022-07-18T17:53:35;879.58;;;297.90;;
55206;SDS011;41079;52.856;6.534;2022-07-18T17:59:42;879.28;;;297.90;;
55206;SDS011;41079;52.856;6.534;2022-07-18T18:09:42;876.35;;;297.02;;
55206;SDS011;41079;52.856;6.534;2022-07-18T18:15:56;881.95;;;301.52;;
55206;SDS011;41079;52.856;6.534;2022-07-18T18:28:40;881.92;;;301.40;;
55206;SDS011;41079;52.856;6.534;2022-07-18T18:34:46;874.97;;;297.25;;
55206;SDS011;41079;52.856;6.534;2022-07-18T18:37:13;875.42;;;298.25;;
55206;SDS011;41079;52.856;6.534;2022-07-18T18:39:39;878.15;;;301.73;;
55206;SDS011;41079;52.856;6.534;2022-07-18T18:42:06;873.47;;;297.48;;
55206;SDS011;41079;52.856;6.534;2022-07-18T18:44:38;870.30;;;295.85;;
55206;SDS011;41079;52.856;6.534;2022-07-18T18:47:05;873.95;;;298.23;;
55206;SDS011;41079;52.856;6.534;2022-07-18T18:49:32;870.25;;;295.92;;
55206;SDS011;41079;52.856;6.534;2022-07-18T18:51:58;870.97;;;296.85;;
55206;SDS011;41079;52.856;6.534;2022-07-18T18:54:26;870.50;;;296.05;;
55206;SDS011;41079;52.856;6.534;2022-07-18T18:56:52;874.63;;;300.92;;
55206;SDS011;41079;52.856;6.534;2022-07-18T18:59:17;870.05;;;296.50;;
55206;SDS011;41079;52.856;6.534;2022-07-18T19:01:44;872.85;;;299.15;;
55206;SDS011;41079;52.856;6.534;2022-07-18T19:04:10;870.40;;;297.63;;
55206;SDS011;41079;52.856;6.534;2022-07-18T19:06:37;861.20;;;291.77;;
55206;SDS011;41079;52.856;6.534;2022-07-18T19:09:10;867.75;;;295.58;;
55206;SDS011;41079;52.856;6.534;2022-07-18T19:11:36;872.47;;;299.80;;
55206;SDS011;41079;52.856;6.534;2022-07-18T19:14:06;860.55;;;290.92;;
55206;SDS011;41079;52.856;6.534;2022-07-18T19:16:33;870.35;;;298.67;;
55206;SDS011;41079;52.856;6.534;2022-07-18T19:35:13;864.05;;;296.50;;
55206;SDS011;41079;52.856;6.534;2022-07-18T19:37:39;857.85;;;292.80;;
55206;SDS011;41079;52.856;6.534;2022-07-18T19:43:04;857.58;;;294.00;;
55206;SDS011;41079;52.856;6.534;2022-07-18T19:45:30;856.33;;;292.98;;
55206;SDS011;41079;52.856;6.534;2022-07-18T19:47:55;852.72;;;290.40;;
55206;SDS011;41079;52.856;6.534;2022-07-18T19:50:21;857.90;;;295.20;;
55206;SDS011;41079;52.856;6.534;2022-07-18T19:52:47;853.42;;;293.02;;
55206;SDS011;41079;52.856;6.534;2022-07-18T19:55:15;852.58;;;292.73;;
55206;SDS011;41079;52.856;6.534;2022-07-18T19:57:44;849.53;;;290.98;;
55206;SDS011;41079;52.856;6.534;2022-07-18T20:00:23;850.17;;;291.63;;
55206;SDS011;41079;52.856;6.534;2022-07-18T20:03:07;853.33;;;294.67;;
55206;SDS011;41079;52.856;6.534;2022-07-18T20:08:25;853.60;;;296.20;;
55206;SDS011;41079;52.856;6.534;2022-07-18T20:16:24;842.97;;;290.00;;
55206;SDS011;41079;52.856;6.534;2022-07-18T20:18:50;850.17;;;295.20;;
55206;SDS011;41079;52.856;6.534;2022-07-18T20:25:01;848.35;;;294.92;;
55206;SDS011;41079;52.856;6.534;2022-07-18T20:34:38;846.85;;;296.38;;